createdAt,value
2019-01-23T00:00:54.944Z,0
2019-01-23T00:01:55.535Z,0
2019-01-23T00:02:56.122Z,0
2019-01-23T00:03:56.718Z,0
2019-01-23T00:04:57.371Z,0
2019-01-23T00:05:57.960Z,0
2019-01-23T00:06:58.545Z,0
2019-01-23T00:07:59.136Z,0
2019-01-23T00:08:59.724Z,0
2019-01-23T00:10:00.318Z,0
2019-01-23T00:11:00.959Z,0
2019-01-23T00:12:01.549Z,0
2019-01-23T00:13:03.508Z,0
2019-01-23T00:14:03.724Z,0
2019-01-23T00:15:04.315Z,0
2019-01-23T00:16:04.905Z,0
2019-01-23T00:17:05.485Z,0
2019-01-23T00:18:06.083Z,0
2019-01-23T00:19:06.672Z,0
2019-01-23T00:20:07.265Z,0
2019-01-23T00:21:07.866Z,0
2019-01-23T00:22:08.457Z,0
2019-01-23T00:23:09.037Z,0
2019-01-23T00:24:09.633Z,0
2019-01-23T00:25:10.224Z,0
2019-01-23T00:26:10.814Z,0
2019-01-23T00:27:11.406Z,0
2019-01-23T00:28:11.988Z,0
2019-01-23T00:29:12.580Z,0
2019-01-23T00:30:13.173Z,0
2019-01-23T00:31:13.769Z,0
2019-01-23T00:32:14.361Z,0
2019-01-23T00:33:14.951Z,0
2019-01-23T00:34:15.544Z,0
2019-01-23T00:35:16.127Z,0
2019-01-23T00:36:16.720Z,0
2019-01-23T00:37:17.303Z,0
2019-01-23T00:38:17.895Z,0
2019-01-23T00:39:18.489Z,0
2019-01-23T00:40:19.079Z,0
2019-01-23T00:41:19.668Z,0
2019-01-23T00:42:20.261Z,0
2019-01-23T00:43:20.842Z,0
2019-01-23T00:44:21.428Z,0
2019-01-23T00:45:22.019Z,0
2019-01-23T00:46:22.611Z,0
2019-01-23T00:47:23.202Z,0
2019-01-23T00:48:23.794Z,0
2019-01-23T00:49:24.385Z,0
2019-01-23T00:50:24.976Z,0
2019-01-23T00:51:25.612Z,0
2019-01-23T00:52:26.160Z,0
2019-01-23T00:53:26.755Z,0
2019-01-23T00:54:27.336Z,0
2019-01-23T00:55:27.930Z,0
2019-01-23T00:56:28.512Z,0
2019-01-23T00:57:29.101Z,0
2019-01-23T00:58:29.693Z,0
2019-01-23T00:59:30.284Z,0
2019-01-23T01:01:15.090Z,0
2019-01-23T01:02:15.685Z,0
2019-01-23T01:03:16.282Z,0
2019-01-23T01:04:16.862Z,0
2019-01-23T01:05:17.459Z,0
2019-01-23T01:06:18.048Z,0
2019-01-23T01:07:18.642Z,0
2019-01-23T01:08:19.263Z,0
2019-01-23T01:09:19.841Z,0
2019-01-23T01:10:20.419Z,0
2019-01-23T01:11:21.001Z,0
2019-01-23T01:12:21.600Z,0
2019-01-23T01:13:22.184Z,0
2019-01-23T01:14:22.772Z,0
2019-01-23T01:15:23.373Z,0
2019-01-23T01:16:23.956Z,0
2019-01-23T01:17:24.553Z,0
2019-01-23T01:18:25.143Z,0
2019-01-23T01:19:25.737Z,0
2019-01-23T01:20:26.331Z,0
2019-01-23T01:21:26.923Z,0
2019-01-23T01:22:27.512Z,0
2019-01-23T01:23:28.104Z,0
2019-01-23T01:24:28.710Z,0
2019-01-23T01:25:29.279Z,0
2019-01-23T01:26:29.866Z,0
2019-01-23T01:27:30.450Z,0
2019-01-23T01:28:31.040Z,0
2019-01-23T01:29:31.622Z,0
2019-01-23T01:30:32.214Z,0
2019-01-23T01:31:32.802Z,0
2019-01-23T01:32:33.402Z,0
2019-01-23T01:33:34.139Z,0
2019-01-23T01:34:34.562Z,0
2019-01-23T01:35:35.145Z,0
2019-01-23T01:36:35.732Z,0
2019-01-23T01:37:36.322Z,0
2019-01-23T01:38:36.908Z,0
2019-01-23T01:39:37.498Z,0
2019-01-23T01:40:38.092Z,0
2019-01-23T01:41:38.690Z,0
2019-01-23T01:42:39.276Z,0
2019-01-23T01:43:39.869Z,0
2019-01-23T01:44:40.453Z,0
2019-01-23T01:45:41.045Z,0
2019-01-23T01:46:41.638Z,0
2019-01-23T01:47:42.231Z,0
2019-01-23T01:48:42.818Z,0
2019-01-23T01:49:43.421Z,0
2019-01-23T01:50:43.996Z,0
2019-01-23T01:51:44.581Z,0
2019-01-23T01:52:45.172Z,0
2019-01-23T01:53:45.769Z,0
2019-01-23T01:54:46.354Z,0
2019-01-23T01:55:46.944Z,0
2019-01-23T01:56:47.540Z,0
2019-01-23T01:57:48.127Z,0
2019-01-23T01:58:48.712Z,0
2019-01-23T01:59:49.306Z,0
2019-01-23T02:00:49.898Z,0
2019-01-23T02:01:50.485Z,0
2019-01-23T02:02:51.067Z,0
2019-01-23T02:03:51.662Z,0
2019-01-23T02:04:52.256Z,0
2019-01-23T02:05:52.846Z,0
2019-01-23T02:06:53.441Z,0
2019-01-23T02:07:54.030Z,0
2019-01-23T02:08:54.614Z,0
2019-01-23T02:09:55.213Z,0
2019-01-23T02:10:55.803Z,0
2019-01-23T02:11:56.391Z,0
2019-01-23T02:12:56.979Z,0
2019-01-23T02:13:57.573Z,0
2019-01-23T02:14:58.164Z,0
2019-01-23T02:15:58.749Z,0
2019-01-23T02:16:59.339Z,0
2019-01-23T02:17:59.924Z,0
2019-01-23T02:19:00.522Z,0
2019-01-23T02:20:01.115Z,0
2019-01-23T02:21:01.707Z,0
2019-01-23T02:22:02.296Z,0
2019-01-23T02:23:02.889Z,0
2019-01-23T02:24:03.480Z,0
2019-01-23T02:25:04.070Z,0
2019-01-23T02:26:04.662Z,0
2019-01-23T02:27:05.267Z,0
2019-01-23T02:28:05.836Z,0
2019-01-23T02:29:09.583Z,0
2019-01-23T02:30:07.023Z,0
2019-01-23T02:31:07.608Z,0
2019-01-23T02:32:08.204Z,0
2019-01-23T02:33:08.792Z,0
2019-01-23T02:34:09.384Z,0
2019-01-23T02:35:09.993Z,0
2019-01-23T02:36:10.557Z,0
2019-01-23T02:37:11.151Z,0
2019-01-23T02:38:11.743Z,0
2019-01-23T02:39:12.338Z,0
2019-01-23T02:40:12.917Z,0
2019-01-23T02:41:13.508Z,0
2019-01-23T02:42:14.101Z,0
2019-01-23T02:43:14.693Z,0
2019-01-23T02:44:15.274Z,0
2019-01-23T02:45:15.861Z,0
2019-01-23T02:46:16.450Z,0
2019-01-23T02:47:17.043Z,0
2019-01-23T02:48:17.626Z,0
2019-01-23T02:49:18.224Z,0
2019-01-23T02:50:18.806Z,0
2019-01-23T02:51:19.403Z,0
2019-01-23T02:52:19.978Z,0
2019-01-23T02:53:20.571Z,0
2019-01-23T02:54:21.162Z,0
2019-01-23T02:55:21.751Z,0
2019-01-23T02:56:22.337Z,0
2019-01-23T02:57:22.929Z,0
2019-01-23T02:58:23.521Z,0
2019-01-23T02:59:24.111Z,0
2019-01-23T03:00:24.695Z,0
2019-01-23T03:01:25.278Z,0
2019-01-23T03:02:25.870Z,0
2019-01-23T03:03:26.460Z,0
2019-01-23T03:04:27.041Z,0
2019-01-23T03:05:27.639Z,0
2019-01-23T03:06:28.224Z,0
2019-01-23T03:07:28.807Z,0
2019-01-23T03:08:29.397Z,0
2019-01-23T03:09:29.981Z,0
2019-01-23T03:10:30.572Z,0
2019-01-23T03:11:31.171Z,0
2019-01-23T03:12:31.754Z,0
2019-01-23T03:13:32.351Z,0
2019-01-23T03:14:32.951Z,0
2019-01-23T03:15:33.532Z,0
2019-01-23T03:16:34.119Z,0
2019-01-23T03:17:34.699Z,0
2019-01-23T03:18:35.294Z,0
2019-01-23T03:19:35.880Z,0
2019-01-23T03:20:36.464Z,0
2019-01-23T03:21:37.055Z,0
2019-01-23T03:22:37.637Z,0
2019-01-23T03:23:38.229Z,0
2019-01-23T03:24:38.820Z,0
2019-01-23T03:25:39.402Z,0
2019-01-23T03:26:39.984Z,0
2019-01-23T03:27:40.581Z,0
2019-01-23T03:28:41.166Z,0
2019-01-23T03:29:41.757Z,0
2019-01-23T03:30:42.353Z,0
2019-01-23T03:31:42.943Z,0
2019-01-23T03:32:43.542Z,0
2019-01-23T03:33:44.126Z,0
2019-01-23T03:34:44.716Z,0
2019-01-23T03:35:45.307Z,0
2019-01-23T03:36:45.900Z,0
2019-01-23T03:37:46.490Z,0
2019-01-23T03:38:47.079Z,0
2019-01-23T03:39:47.666Z,0
2019-01-23T03:40:48.259Z,0
2019-01-23T03:41:48.853Z,0
2019-01-23T03:42:49.439Z,0
2019-01-23T03:43:50.037Z,0
2019-01-23T03:44:50.618Z,0
2019-01-23T03:45:51.209Z,0
2019-01-23T03:46:51.804Z,0
2019-01-23T03:47:52.418Z,0
2019-01-23T03:48:52.995Z,0
2019-01-23T03:49:53.579Z,0
2019-01-23T03:50:54.175Z,0
2019-01-23T03:51:54.765Z,0
2019-01-23T03:52:55.358Z,0
2019-01-23T03:53:55.943Z,0
2019-01-23T03:54:56.526Z,0
2019-01-23T03:55:57.118Z,0
2019-01-23T03:56:57.706Z,0
2019-01-23T03:57:58.298Z,0
2019-01-23T03:58:58.874Z,0
2019-01-23T03:59:59.458Z,0
2019-01-23T04:01:00.042Z,0
2019-01-23T04:02:00.632Z,0
2019-01-23T04:03:01.226Z,0
2019-01-23T04:04:01.813Z,0
2019-01-23T04:05:02.408Z,0
2019-01-23T04:06:02.999Z,0
2019-01-23T04:07:03.589Z,0
2019-01-23T04:08:04.171Z,0
2019-01-23T04:09:04.764Z,0
2019-01-23T04:10:05.349Z,0
2019-01-23T04:11:05.962Z,0
2019-01-23T04:12:06.531Z,0
2019-01-23T04:13:07.150Z,0
2019-01-23T04:14:07.709Z,0
2019-01-23T04:15:08.295Z,0
2019-01-23T04:16:08.883Z,0
2019-01-23T04:17:09.470Z,0
2019-01-23T04:18:10.076Z,0
2019-01-23T04:19:10.647Z,0
2019-01-23T04:20:11.254Z,0
2019-01-23T04:21:11.821Z,0
2019-01-23T04:22:12.414Z,0
2019-01-23T04:23:13.004Z,0
2019-01-23T04:24:13.598Z,0
2019-01-23T04:25:14.186Z,0
2019-01-23T04:26:14.779Z,0
2019-01-23T04:27:15.371Z,0
2019-01-23T04:28:15.963Z,0
2019-01-23T04:29:16.555Z,0
2019-01-23T04:30:17.151Z,0
2019-01-23T04:31:17.728Z,0
2019-01-23T04:32:18.311Z,0
2019-01-23T04:33:18.904Z,0
2019-01-23T04:34:19.494Z,0
2019-01-23T04:35:20.089Z,0
2019-01-23T04:36:20.689Z,0
2019-01-23T04:37:21.275Z,0
2019-01-23T04:38:21.869Z,0
2019-01-23T04:39:22.481Z,0
2019-01-23T04:40:23.048Z,0
2019-01-23T04:41:23.641Z,0
2019-01-23T04:42:24.240Z,0
2019-01-23T04:43:24.829Z,0
2019-01-23T04:44:25.414Z,0
2019-01-23T04:45:26.006Z,0
2019-01-23T04:46:26.602Z,0
2019-01-23T04:47:27.195Z,0
2019-01-23T04:48:27.779Z,0
2019-01-23T04:49:28.363Z,0
2019-01-23T04:50:28.951Z,0
2019-01-23T04:51:29.529Z,0
2019-01-23T04:52:30.115Z,0
2019-01-23T04:53:30.703Z,0
2019-01-23T04:54:31.286Z,0
2019-01-23T04:55:31.879Z,0
2019-01-23T04:56:32.470Z,0
2019-01-23T04:57:33.053Z,0
2019-01-23T04:58:33.636Z,0
2019-01-23T04:59:34.238Z,0
2019-01-23T05:00:34.819Z,0
2019-01-23T05:01:35.394Z,0
2019-01-23T05:02:35.982Z,0
2019-01-23T05:03:36.567Z,0
2019-01-23T05:04:37.168Z,0
2019-01-23T05:05:37.745Z,0
2019-01-23T05:06:38.334Z,0
2019-01-23T05:07:38.925Z,0
2019-01-23T05:08:39.509Z,0
2019-01-23T05:09:40.098Z,0
2019-01-23T05:10:40.683Z,0
2019-01-23T05:11:41.268Z,0
2019-01-23T05:12:41.856Z,0
2019-01-23T05:13:42.446Z,0
2019-01-23T05:14:43.038Z,0
2019-01-23T05:15:43.631Z,0
2019-01-23T05:16:44.211Z,0
2019-01-23T05:17:44.805Z,0
2019-01-23T05:18:45.387Z,0
2019-01-23T05:19:45.971Z,0
2019-01-23T05:20:46.559Z,0
2019-01-23T05:21:47.151Z,0
2019-01-23T05:22:47.734Z,0
2019-01-23T05:23:48.326Z,0
2019-01-23T05:24:48.950Z,0
2019-01-23T05:25:49.501Z,0
2019-01-23T05:26:50.091Z,0
2019-01-23T05:27:50.685Z,0
2019-01-23T05:28:51.273Z,0
2019-01-23T05:29:55.082Z,0
2019-01-23T05:30:52.457Z,0
2019-01-23T05:31:53.046Z,0
2019-01-23T05:32:53.631Z,0
2019-01-23T05:33:54.216Z,0
2019-01-23T05:34:54.797Z,0
2019-01-23T05:35:55.389Z,0
2019-01-23T05:36:55.982Z,0
2019-01-23T05:37:56.568Z,0
2019-01-23T05:38:57.151Z,0
2019-01-23T05:39:57.734Z,0
2019-01-23T05:40:58.335Z,0
2019-01-23T05:41:58.919Z,0
2019-01-23T05:42:59.527Z,0
2019-01-23T05:44:00.104Z,0
2019-01-23T05:45:00.688Z,0
2019-01-23T05:46:01.285Z,0
2019-01-23T05:47:01.867Z,0
2019-01-23T05:48:02.448Z,0
2019-01-23T05:49:03.030Z,0
2019-01-23T05:50:03.615Z,0
2019-01-23T05:51:04.208Z,0
2019-01-23T05:52:04.822Z,0
2019-01-23T05:53:05.397Z,0
2019-01-23T05:54:05.978Z,0
2019-01-23T05:55:06.567Z,0
2019-01-23T05:56:07.168Z,0
2019-01-23T05:57:07.774Z,0
2019-01-23T05:58:09.257Z,0
2019-01-23T05:59:08.959Z,0
2019-01-23T06:00:09.550Z,0
2019-01-23T06:01:10.143Z,0
2019-01-23T06:02:10.722Z,0
2019-01-23T06:03:11.303Z,0
2019-01-23T06:04:11.887Z,0
2019-01-23T06:05:12.481Z,0
2019-01-23T06:06:13.064Z,0
2019-01-23T06:07:13.654Z,0
2019-01-23T06:08:14.245Z,0
2019-01-23T06:09:14.833Z,0
2019-01-23T06:10:15.419Z,0
2019-01-23T06:11:16.014Z,0
2019-01-23T06:12:16.654Z,0
2019-01-23T06:13:17.243Z,0
2019-01-23T06:14:17.821Z,0
2019-01-23T06:15:18.470Z,0
2019-01-23T06:16:19.058Z,0
2019-01-23T06:17:19.675Z,0
2019-01-23T06:18:20.284Z,0
2019-01-23T06:19:20.856Z,0
2019-01-23T06:20:21.446Z,0
2019-01-23T06:21:22.077Z,0
2019-01-23T06:22:22.655Z,0
2019-01-23T06:23:23.238Z,0
2019-01-23T06:24:23.829Z,0
2019-01-23T06:25:24.419Z,0
2019-01-23T06:26:25.008Z,0
2019-01-23T06:27:25.601Z,0
2019-01-23T06:28:26.192Z,0
2019-01-23T06:29:26.782Z,0
2019-01-23T06:30:27.375Z,0
2019-01-23T06:31:27.967Z,0
2019-01-23T06:32:28.555Z,0
2019-01-23T06:33:29.143Z,0
2019-01-23T06:34:29.724Z,0
2019-01-23T06:35:30.314Z,0
2019-01-23T06:36:30.906Z,0
2019-01-23T06:37:31.500Z,0
2019-01-23T06:38:32.084Z,0
2019-01-23T06:39:32.674Z,0
2019-01-23T06:40:33.276Z,0
2019-01-23T06:41:33.899Z,0
2019-01-23T06:42:34.447Z,0
2019-01-23T06:43:35.039Z,0
2019-01-23T06:44:35.629Z,0
2019-01-23T06:45:36.210Z,0
2019-01-23T06:46:36.801Z,0
2019-01-23T06:47:37.403Z,0
2019-01-23T06:48:37.976Z,0
2019-01-23T06:49:38.565Z,0
2019-01-23T06:50:39.157Z,0
2019-01-23T06:51:39.743Z,0
2019-01-23T06:52:40.337Z,0
2019-01-23T06:53:40.923Z,0
2019-01-23T06:54:41.574Z,0
2019-01-23T06:55:42.143Z,0
2019-01-23T06:56:42.735Z,0
2019-01-23T06:57:43.318Z,0
2019-01-23T06:58:43.902Z,0
2019-01-23T06:59:44.539Z,0
2019-01-23T07:00:45.089Z,0
2019-01-23T07:01:45.681Z,0
2019-01-23T07:02:46.272Z,0
2019-01-23T07:03:46.854Z,0
2019-01-23T07:04:47.479Z,0
2019-01-23T07:05:48.065Z,0
2019-01-23T07:06:48.664Z,0
2019-01-23T07:07:49.258Z,0
2019-01-23T07:08:50.095Z,0
2019-01-23T07:09:50.689Z,0
2019-01-23T07:10:51.288Z,0
2019-01-23T07:11:51.864Z,0
2019-01-23T07:12:52.457Z,0
2019-01-23T07:13:53.050Z,0
2019-01-23T07:14:53.640Z,0
2019-01-23T07:15:54.232Z,0
2019-01-23T07:16:54.874Z,0
2019-01-23T07:17:55.463Z,0
2019-01-23T07:18:56.052Z,0
2019-01-23T07:19:56.636Z,0
2019-01-23T07:20:57.229Z,0
2019-01-23T07:21:57.817Z,0
2019-01-23T07:22:58.406Z,5
2019-01-23T07:23:58.992Z,5
2019-01-23T07:24:59.581Z,5
2019-01-23T07:26:00.174Z,5
2019-01-23T07:27:00.768Z,5
2019-01-23T07:28:01.361Z,5
2019-01-23T07:29:01.954Z,5
2019-01-23T07:30:02.549Z,5
2019-01-23T07:31:03.138Z,5
2019-01-23T07:32:03.732Z,5
2019-01-23T07:33:04.323Z,10
2019-01-23T07:34:04.927Z,10
2019-01-23T07:35:05.513Z,10
2019-01-23T07:36:06.102Z,10
2019-01-23T07:37:06.694Z,10
2019-01-23T07:38:07.290Z,10
2019-01-23T07:39:07.886Z,10
2019-01-23T07:40:08.475Z,10
2019-01-23T07:41:09.064Z,10
2019-01-23T07:42:09.654Z,10
2019-01-23T07:43:10.249Z,15
2019-01-23T07:44:10.852Z,15
2019-01-23T07:45:11.443Z,15
2019-01-23T07:46:12.035Z,15
2019-01-23T07:47:12.633Z,15
2019-01-23T07:48:13.215Z,15
2019-01-23T07:49:13.861Z,20
2019-01-23T07:50:14.456Z,20
2019-01-23T07:51:15.042Z,20
2019-01-23T07:52:15.637Z,25
2019-01-23T07:53:16.221Z,25
2019-01-23T07:54:16.817Z,25
2019-01-23T07:55:17.412Z,25
2019-01-23T07:56:17.998Z,25
2019-01-23T07:57:18.593Z,30
2019-01-23T07:58:19.229Z,30
2019-01-23T07:59:19.874Z,30
2019-01-23T08:00:20.474Z,30
2019-01-23T08:01:21.215Z,30
2019-01-23T08:02:21.811Z,35
2019-01-23T08:03:22.396Z,35
2019-01-23T08:04:22.981Z,40
2019-01-23T08:05:23.590Z,40
2019-01-23T08:06:24.165Z,40
2019-01-23T08:07:24.751Z,40
2019-01-23T08:08:25.348Z,45
2019-01-23T08:09:25.984Z,45
2019-01-23T08:10:26.583Z,45
2019-01-23T08:11:27.181Z,50
2019-01-23T08:12:27.766Z,45
2019-01-23T08:13:28.365Z,45
2019-01-23T08:14:28.955Z,45
2019-01-23T08:15:29.587Z,45
2019-01-23T08:16:30.162Z,45
2019-01-23T08:17:32.989Z,45
2019-01-23T08:18:31.337Z,45
2019-01-23T08:19:31.939Z,45
2019-01-23T08:20:32.530Z,45
2019-01-23T08:21:33.126Z,45
2019-01-23T08:22:33.718Z,45
2019-01-23T08:23:34.307Z,45
2019-01-23T08:24:34.966Z,45
2019-01-23T08:25:35.567Z,45
2019-01-23T08:26:36.162Z,50
2019-01-23T08:27:36.759Z,50
2019-01-23T08:28:37.347Z,50
2019-01-23T08:29:37.940Z,50
2019-01-23T08:30:40.747Z,55
2019-01-23T08:31:39.123Z,55
2019-01-23T08:32:39.723Z,50
2019-01-23T08:33:40.318Z,55
2019-01-23T08:34:40.911Z,55
2019-01-23T08:35:41.519Z,55
2019-01-23T08:36:42.097Z,55
2019-01-23T08:37:42.691Z,55
2019-01-23T08:38:43.281Z,55
2019-01-23T08:39:43.898Z,55
2019-01-23T08:40:44.520Z,55
2019-01-23T08:41:45.102Z,55
2019-01-23T08:42:45.701Z,55
2019-01-23T08:43:46.298Z,55
2019-01-23T08:44:46.911Z,55
2019-01-23T08:45:47.475Z,55
2019-01-23T08:46:48.076Z,55
2019-01-23T08:47:48.666Z,60
2019-01-23T08:48:49.261Z,65
2019-01-23T08:49:49.849Z,65
2019-01-23T08:50:50.433Z,70
2019-01-23T08:51:51.033Z,70
2019-01-23T08:52:51.628Z,75
2019-01-23T08:53:52.220Z,75
2019-01-23T08:54:52.816Z,80
2019-01-23T08:55:53.969Z,80
2019-01-23T08:56:54.006Z,80
2019-01-23T08:57:54.593Z,80
2019-01-23T08:58:55.191Z,85
2019-01-23T08:59:55.786Z,85
2019-01-23T09:00:56.384Z,85
2019-01-23T09:01:56.979Z,85
2019-01-23T09:02:57.575Z,85
2019-01-23T09:03:58.168Z,85
2019-01-23T09:04:58.757Z,90
2019-01-23T09:05:59.352Z,80
2019-01-23T09:06:59.950Z,80
2019-01-23T09:08:00.539Z,85
2019-01-23T09:09:01.139Z,85
2019-01-23T09:10:01.737Z,85
2019-01-23T09:11:02.333Z,85
2019-01-23T09:12:02.917Z,85
2019-01-23T09:13:03.524Z,80
2019-01-23T09:14:04.201Z,80
2019-01-23T09:15:04.801Z,80
2019-01-23T09:16:05.399Z,80
2019-01-23T09:17:05.982Z,80
2019-01-23T09:18:07.173Z,80
2019-01-23T09:19:07.241Z,80
2019-01-23T09:20:07.795Z,85
2019-01-23T09:21:08.389Z,85
2019-01-23T09:22:08.988Z,90
2019-01-23T09:23:09.575Z,95
2019-01-23T09:24:10.177Z,95
2019-01-23T09:25:10.775Z,95
2019-01-23T09:26:55.585Z,95
2019-01-23T09:27:56.187Z,95
2019-01-23T09:28:56.790Z,90
2019-01-23T09:29:57.974Z,90
2019-01-23T09:30:58.993Z,90
2019-01-23T09:31:59.810Z,90
2019-01-23T09:33:00.712Z,85
2019-01-23T09:34:01.644Z,85
2019-01-23T09:35:02.446Z,85
2019-01-23T09:36:03.332Z,90
2019-01-23T09:37:03.965Z,90
2019-01-23T09:38:04.802Z,90
2019-01-23T09:39:05.372Z,90
2019-01-23T09:40:05.973Z,95
2019-01-23T09:41:06.831Z,95
2019-01-23T09:42:07.583Z,95
2019-01-23T09:43:08.224Z,100
2019-01-23T09:44:08.847Z,100
2019-01-23T09:45:09.675Z,105
2019-01-23T09:46:10.363Z,105
2019-01-23T09:47:11.313Z,105
2019-01-23T09:48:12.106Z,105
2019-01-23T09:49:13.157Z,110
2019-01-23T09:50:14.232Z,115
2019-01-23T09:51:14.975Z,115
2019-01-23T09:52:16.008Z,120
2019-01-23T09:53:17.056Z,125
2019-01-23T09:54:19.113Z,130
2019-01-23T09:55:20.408Z,130
2019-01-23T09:56:21.927Z,135
2019-01-23T09:57:23.286Z,135
2019-01-23T09:58:24.858Z,130
2019-01-23T09:59:26.341Z,130
2019-01-23T10:00:27.408Z,125
2019-01-23T10:01:28.314Z,125
2019-01-23T10:02:29.247Z,120
2019-01-23T10:03:30.735Z,120
2019-01-23T10:04:31.724Z,120
2019-01-23T10:05:32.759Z,120
2019-01-23T10:06:34.071Z,120
2019-01-23T10:07:34.985Z,120
2019-01-23T10:08:36.460Z,120
2019-01-23T10:09:37.624Z,115
2019-01-23T10:10:38.577Z,120
2019-01-23T10:11:39.825Z,120
2019-01-23T10:12:41.651Z,120
2019-01-23T10:13:42.675Z,125
2019-01-23T10:14:43.422Z,130
2019-01-23T10:15:44.130Z,135
2019-01-23T10:16:45.309Z,140
2019-01-23T10:17:46.757Z,140
2019-01-23T10:18:47.572Z,140
2019-01-23T10:19:49.046Z,145
2019-01-23T10:20:50.939Z,145
2019-01-23T10:21:52.422Z,150
2019-01-23T10:22:54.065Z,150
2019-01-23T10:23:55.313Z,155
2019-01-23T10:24:57.049Z,155
2019-01-23T10:25:58.611Z,155
2019-01-23T10:26:59.859Z,160
2019-01-23T10:28:01.585Z,165
2019-01-23T10:29:02.596Z,170
2019-01-23T10:30:03.428Z,170
2019-01-23T10:31:06.714Z,175
2019-01-23T10:32:05.510Z,180
2019-01-23T10:33:06.548Z,185
2019-01-23T10:34:07.359Z,190
2019-01-23T10:35:08.168Z,190
2019-01-23T10:36:08.717Z,190
2019-01-23T10:37:09.504Z,185
2019-01-23T10:38:10.251Z,190
2019-01-23T10:39:10.857Z,195
2019-01-23T10:40:11.458Z,200
2019-01-23T10:41:12.062Z,205
2019-01-23T10:42:12.703Z,200
2019-01-23T10:43:13.483Z,205
2019-01-23T10:44:14.197Z,205
2019-01-23T10:45:14.734Z,200
2019-01-23T10:46:15.339Z,200
2019-01-23T10:47:15.943Z,195
2019-01-23T10:48:16.551Z,195
2019-01-23T10:49:17.153Z,195
2019-01-23T10:50:17.758Z,195
2019-01-23T10:51:18.362Z,195
2019-01-23T10:52:19.136Z,195
2019-01-23T10:53:19.822Z,195
2019-01-23T10:54:20.601Z,195
2019-01-23T10:55:21.235Z,195
2019-01-23T10:56:21.840Z,195
2019-01-23T10:57:22.640Z,200
2019-01-23T10:58:23.578Z,200
2019-01-23T10:59:24.251Z,200
2019-01-23T11:00:24.990Z,200
2019-01-23T11:01:26.090Z,200
2019-01-23T11:02:26.664Z,200
2019-01-23T11:03:27.615Z,200
2019-01-23T11:04:28.611Z,200
2019-01-23T11:05:29.149Z,200
2019-01-23T11:06:30.066Z,200
2019-01-23T11:07:30.959Z,200
2019-01-23T11:08:31.835Z,200
2019-01-23T11:09:32.606Z,195
2019-01-23T11:10:33.234Z,195
2019-01-23T11:11:34.131Z,195
2019-01-23T11:12:35.180Z,195
2019-01-23T11:13:36.121Z,190
2019-01-23T11:14:36.909Z,195
2019-01-23T11:15:37.825Z,190
2019-01-23T11:16:38.924Z,190
2019-01-23T11:17:39.979Z,190
2019-01-23T11:18:40.780Z,190
2019-01-23T11:19:41.705Z,190
2019-01-23T11:20:42.683Z,185
2019-01-23T11:21:43.707Z,185
2019-01-23T11:22:44.527Z,180
2019-01-23T11:23:45.463Z,180
2019-01-23T11:24:46.249Z,180
2019-01-23T11:25:47.192Z,180
2019-01-23T11:26:48.006Z,180
2019-01-23T11:27:48.596Z,180
2019-01-23T11:28:49.194Z,180
2019-01-23T11:29:49.791Z,180
2019-01-23T11:30:50.550Z,180
2019-01-23T11:31:51.083Z,180
2019-01-23T11:32:51.756Z,180
2019-01-23T11:33:52.403Z,180
2019-01-23T11:34:53.003Z,175
2019-01-23T11:35:53.600Z,175
2019-01-23T11:36:54.196Z,170
2019-01-23T11:37:54.796Z,170
2019-01-23T11:38:55.395Z,165
2019-01-23T11:39:55.988Z,160
2019-01-23T11:40:56.584Z,155
2019-01-23T11:41:57.186Z,155
2019-01-23T11:42:57.784Z,155
2019-01-23T11:43:58.382Z,155
2019-01-23T11:44:58.982Z,155
2019-01-23T11:45:59.671Z,155
2019-01-23T11:47:00.281Z,155
2019-01-23T11:48:00.867Z,155
2019-01-23T11:49:01.510Z,155
2019-01-23T11:51:18.186Z,145
2019-01-23T11:52:18.778Z,150
2019-01-23T11:53:19.374Z,150
2019-01-23T11:54:19.962Z,150
2019-01-23T11:55:20.555Z,150
2019-01-23T11:56:21.212Z,145
2019-01-23T11:57:21.812Z,140
2019-01-23T11:58:22.382Z,140
2019-01-23T11:59:22.982Z,145
2019-01-23T12:00:23.578Z,150
2019-01-23T12:01:27.595Z,155
2019-01-23T12:02:30.741Z,155
2019-01-23T12:03:25.415Z,160
2019-01-23T12:04:26.012Z,165
2019-01-23T12:05:26.605Z,170
2019-01-23T12:06:27.194Z,175
2019-01-23T12:07:27.796Z,175
2019-01-23T12:08:28.397Z,170
2019-01-23T12:09:28.988Z,165
2019-01-23T12:10:29.585Z,165
2019-01-23T12:11:30.191Z,170
2019-01-23T12:12:30.791Z,175
2019-01-23T12:13:31.383Z,170
2019-01-23T12:14:31.991Z,165
2019-01-23T12:15:32.583Z,160
2019-01-23T12:16:33.196Z,155
2019-01-23T12:17:34.024Z,155
2019-01-23T12:18:34.651Z,155
2019-01-23T12:19:35.217Z,155
2019-01-23T12:20:35.811Z,150
2019-01-23T12:21:36.409Z,150
2019-01-23T12:22:37.001Z,150
2019-01-23T12:23:37.598Z,150
2019-01-23T12:24:38.199Z,150
2019-01-23T12:25:38.802Z,150
2019-01-23T12:26:39.397Z,150
2019-01-23T12:27:39.989Z,145
2019-01-23T12:28:40.584Z,145
2019-01-23T12:29:41.182Z,145
2019-01-23T12:30:41.780Z,145
2019-01-23T12:31:42.446Z,150
2019-01-23T12:32:43.058Z,155
2019-01-23T12:33:43.659Z,155
2019-01-23T12:34:44.256Z,160
2019-01-23T12:35:44.854Z,165
2019-01-23T12:36:45.450Z,175
2019-01-23T12:37:46.054Z,180
2019-01-23T12:38:46.652Z,190
2019-01-23T12:39:47.253Z,190
2019-01-23T12:40:47.851Z,195
2019-01-23T12:41:48.449Z,195
2019-01-23T12:42:49.042Z,195
2019-01-23T12:43:49.639Z,190
2019-01-23T12:44:50.240Z,180
2019-01-23T12:45:50.838Z,170
2019-01-23T12:46:51.446Z,160
2019-01-23T12:47:52.034Z,155
2019-01-23T12:48:52.634Z,155
2019-01-23T12:49:53.254Z,150
2019-01-23T12:50:53.823Z,150
2019-01-23T12:51:54.424Z,145
2019-01-23T12:52:55.025Z,145
2019-01-23T12:53:55.623Z,150
2019-01-23T12:54:56.219Z,155
2019-01-23T12:55:56.896Z,155
2019-01-23T12:56:57.499Z,160
2019-01-23T12:57:58.088Z,165
2019-01-23T12:58:58.689Z,165
2019-01-23T13:00:05.084Z,165
2019-01-23T13:00:59.881Z,160
2019-01-23T13:02:00.481Z,165
2019-01-23T13:03:01.077Z,155
2019-01-23T13:04:01.663Z,155
2019-01-23T13:05:02.270Z,155
2019-01-23T13:06:02.891Z,155
2019-01-23T13:07:03.504Z,155
2019-01-23T13:08:04.070Z,150
2019-01-23T13:09:04.681Z,155
2019-01-23T13:10:05.283Z,155
2019-01-23T13:11:05.885Z,160
2019-01-23T13:12:06.498Z,160
2019-01-23T13:13:07.102Z,165
2019-01-23T13:14:07.733Z,165
2019-01-23T13:15:08.326Z,165
2019-01-23T13:16:08.967Z,170
2019-01-23T13:17:09.535Z,175
2019-01-23T13:18:10.153Z,175
2019-01-23T13:19:10.723Z,180
2019-01-23T13:20:11.314Z,180
2019-01-23T13:21:11.916Z,185
2019-01-23T13:22:12.543Z,185
2019-01-23T13:23:19.454Z,185
2019-01-23T13:24:13.704Z,180
2019-01-23T13:25:14.297Z,180
2019-01-23T13:26:14.893Z,180
2019-01-23T13:27:15.488Z,185
2019-01-23T13:28:16.096Z,185
2019-01-23T13:29:16.689Z,185
2019-01-23T13:30:17.298Z,185
2019-01-23T13:31:17.887Z,185
2019-01-23T13:32:18.487Z,185
2019-01-23T13:33:19.136Z,185
2019-01-23T13:34:19.722Z,185
2019-01-23T13:35:20.315Z,190
2019-01-23T13:36:20.954Z,185
2019-01-23T13:37:21.519Z,185
2019-01-23T13:38:22.123Z,185
2019-01-23T13:39:22.734Z,180
2019-01-23T13:40:23.365Z,180
2019-01-23T13:41:23.968Z,175
2019-01-23T13:42:24.567Z,170
2019-01-23T13:43:25.165Z,165
2019-01-23T13:44:25.773Z,160
2019-01-23T13:45:26.373Z,160
2019-01-23T13:46:26.971Z,155
2019-01-23T13:47:27.573Z,155
2019-01-23T13:48:28.177Z,155
2019-01-23T13:49:28.777Z,155
2019-01-23T13:50:29.373Z,150
2019-01-23T13:51:29.966Z,145
2019-01-23T13:52:30.565Z,145
2019-01-23T13:53:31.168Z,140
2019-01-23T13:54:31.766Z,140
2019-01-23T13:55:32.359Z,140
2019-01-23T13:56:33.003Z,140
2019-01-23T13:57:33.602Z,140
2019-01-23T13:58:34.204Z,140
2019-01-23T13:59:34.792Z,135
2019-01-23T14:00:35.397Z,135
2019-01-23T14:01:35.988Z,130
2019-01-23T14:02:36.589Z,125
2019-01-23T14:03:37.195Z,125
2019-01-23T14:04:37.794Z,125
2019-01-23T14:05:38.394Z,125
2019-01-23T14:06:38.994Z,125
2019-01-23T14:07:39.577Z,120
2019-01-23T14:08:40.176Z,120
2019-01-23T14:09:40.777Z,120
2019-01-23T14:10:41.369Z,115
2019-01-23T14:11:41.969Z,110
2019-01-23T14:12:42.571Z,110
2019-01-23T14:13:43.171Z,105
2019-01-23T14:14:43.802Z,100
2019-01-23T14:15:44.370Z,100
2019-01-23T14:16:44.992Z,95
2019-01-23T14:17:45.576Z,95
2019-01-23T14:18:46.164Z,90
2019-01-23T14:19:46.765Z,90
2019-01-23T14:20:47.353Z,85
2019-01-23T14:21:47.952Z,85
2019-01-23T14:22:48.550Z,85
2019-01-23T14:23:49.136Z,85
2019-01-23T14:24:49.735Z,90
2019-01-23T14:25:50.336Z,90
2019-01-23T14:26:50.930Z,90
2019-01-23T14:27:51.528Z,90
2019-01-23T14:28:52.135Z,90
2019-01-23T14:29:52.723Z,90
2019-01-23T14:30:53.320Z,90
2019-01-23T14:31:53.910Z,90
2019-01-23T14:32:54.505Z,90
2019-01-23T14:33:55.106Z,90